Time,TemperatureF,DewpointF,PressureIn,WindDirection,WindDirectionDegrees,WindSpeedMPH,WindSpeedGustMPH,Humidity,HourlyPrecipIn,Conditions,Clouds,dailyrainin,SoftwareType,DateUTC
2013-10-18 00:00:00,43.0,36.0,29.81,West,270,5.0,5.0,76,0.00,,,0.08,meteohub,2013-10-18 05:00:00,
2013-10-18 00:05:00,43.0,36.0,29.81,West,270,5.0,5.0,76,0.00,,,0.00,meteohub,2013-10-18 05:05:00,
2013-10-18 00:10:00,42.6,35.6,29.81,West,270,4.0,5.0,76,0.00,,,0.00,meteohub,2013-10-18 05:10:00,
2013-10-18 00:15:00,44.6,37.6,29.81,West,270,4.0,5.0,76,0.00,,,0.00,meteohub,2013-10-18 05:15:00,
2013-10-18 00:20:00,43.0,36.0,29.81,West,270,4.0,5.0,76,0.00,,,0.00,meteohub,2013-10-18 05:20:00,
2013-10-18 00:25:00,42.6,36.0,29.81,West,270,4.0,5.0,77,0.00,,,0.00,meteohub,2013-10-18 05:25:00,
2013-10-18 00:30:00,42.4,35.8,29.81,West,270,4.0,5.0,77,0.00,,,0.00,meteohub,2013-10-18 05:30:00,
2013-10-18 00:35:00,42.3,36.0,29.81,West,270,4.0,4.0,78,0.00,,,0.00,meteohub,2013-10-18 05:35:00,
2013-10-18 00:41:00,42.3,36.0,29.81,West,270,4.0,4.0,78,0.00,,,0.00,meteohub,2013-10-18 05:41:00,
2013-10-18 00:46:00,42.3,36.0,29.80,WSW,248,4.0,4.0,78,0.00,,,0.00,meteohub,2013-10-18 05:46:00,
2013-10-18 00:51:00,42.1,35.8,29.81,West,270,4.0,4.0,78,0.00,,,0.00,meteohub,2013-10-18 05:51:00,
2013-10-18 00:56:00,42.1,36.0,29.80,SW,225,6.0,6.0,79,0.00,,,0.00,meteohub,2013-10-18 05:56:00,
2013-10-18 01:01:00,41.9,35.8,29.80,WSW,248,5.0,6.0,79,0.00,,,0.00,meteohub,2013-10-18 06:01:00,
2013-10-18 01:06:00,41.9,35.8,29.80,WSW,248,5.0,6.0,79,0.00,,,0.00,meteohub,2013-10-18 06:06:00,
2013-10-18 01:11:00,41.9,35.8,29.80,SW,225,6.0,6.0,79,0.00,,,0.00,meteohub,2013-10-18 06:11:00,
2013-10-18 01:16:00,41.7,36.0,29.80,WSW,248,6.0,8.0,80,0.00,,,0.00,meteohub,2013-10-18 06:16:00,
2013-10-18 01:21:00,41.5,35.8,29.80,West,270,6.0,8.0,80,0.00,,,0.00,meteohub,2013-10-18 06:21:00,
2013-10-18 01:26:00,41.7,36.0,29.80,SW,225,6.0,8.0,80,0.00,,,0.00,meteohub,2013-10-18 06:26:00,
2013-10-18 01:31:00,41.7,36.3,29.80,SW,225,6.0,7.0,81,0.00,,,0.00,meteohub,2013-10-18 06:31:00,
2013-10-18 01:36:00,41.9,36.5,29.80,SW,225,7.0,7.0,81,0.00,,,0.00,meteohub,2013-10-18 06:36:00,
2013-10-18 01:41:00,42.1,36.7,29.80,SW,225,7.0,7.0,81,0.00,,,0.00,meteohub,2013-10-18 06:41:00,
2013-10-18 01:47:00,42.3,36.9,29.80,West,270,5.0,7.0,81,0.00,,,0.00,meteohub,2013-10-18 06:47:00,
2013-10-18 01:52:00,42.3,36.5,29.79,SW,225,5.0,7.0,80,0.00,,,0.00,meteohub,2013-10-18 06:52:00,
2013-10-18 01:57:00,42.4,36.7,29.79,SW,225,4.0,7.0,80,0.00,,,0.00,meteohub,2013-10-18 06:57:00,
2013-10-18 02:02:00,42.4,36.7,29.79,SW,225,4.0,6.0,80,0.00,,,0.00,meteohub,2013-10-18 07:02:00,
2013-10-18 02:07:00,42.4,36.7,29.80,SW,225,4.0,5.0,80,0.00,,,0.00,meteohub,2013-10-18 07:07:00,
2013-10-18 02:12:00,42.4,36.3,29.79,West,270,7.0,7.0,79,0.00,,,0.00,meteohub,2013-10-18 07:12:00,
2013-10-18 02:17:00,42.4,36.7,29.79,West,270,6.0,8.0,80,0.00,,,0.00,meteohub,2013-10-18 07:17:00,
2013-10-18 02:22:00,42.3,36.1,29.79,SW,225,7.0,8.0,79,0.00,,,0.00,meteohub,2013-10-18 07:22:00,
2013-10-18 02:27:00,42.3,36.1,29.79,West,270,8.0,8.0,79,0.00,,,0.00,meteohub,2013-10-18 07:27:00,
2013-10-18 02:32:00,42.3,36.1,29.79,West,270,7.0,8.0,79,0.00,,,0.00,meteohub,2013-10-18 07:32:00,
2013-10-18 02:37:00,42.1,36.3,29.79,West,270,6.0,8.0,80,0.00,,,0.00,meteohub,2013-10-18 07:37:00,
2013-10-18 02:42:00,41.7,36.3,29.79,West,270,6.0,8.0,81,0.00,,,0.00,meteohub,2013-10-18 07:42:00,
2013-10-18 02:47:00,41.5,36.1,29.79,West,270,7.0,8.0,81,0.00,,,0.00,meteohub,2013-10-18 07:47:00,
2013-10-18 02:52:00,41.4,36.3,29.79,West,270,6.0,8.0,82,0.00,,,0.00,meteohub,2013-10-18 07:52:00,
2013-10-18 02:57:00,41.2,36.5,29.79,NW,315,7.0,8.0,83,0.00,,,0.00,meteohub,2013-10-18 07:57:00,
2013-10-18 03:02:00,41.0,36.3,29.79,SW,225,7.0,8.0,83,0.00,,,0.00,meteohub,2013-10-18 08:02:00,
2013-10-18 03:07:00,41.0,36.3,29.79,SW,225,7.0,8.0,83,0.00,,,0.00,meteohub,2013-10-18 08:07:00,
2013-10-18 03:12:00,40.8,36.3,29.79,West,270,6.0,8.0,84,0.00,,,0.00,meteohub,2013-10-18 08:12:00,
2013-10-18 03:17:00,40.8,36.3,29.79,West,270,7.0,8.0,84,0.00,,,0.00,meteohub,2013-10-18 08:17:00,
2013-10-18 03:22:00,40.8,36.3,29.78,West,270,5.0,8.0,84,0.00,,,0.00,meteohub,2013-10-18 08:22:00,
2013-10-18 03:27:00,40.8,36.3,29.79,West,270,7.0,8.0,84,0.00,,,0.00,meteohub,2013-10-18 08:27:00,
2013-10-18 03:32:00,40.6,36.1,29.78,WSW,248,7.0,7.0,84,0.00,,,0.00,meteohub,2013-10-18 08:32:00,
2013-10-18 03:37:00,40.6,36.1,29.79,West,270,8.0,8.0,84,0.00,,,0.00,meteohub,2013-10-18 08:37:00,
2013-10-18 03:42:00,40.6,36.1,29.78,West,270,8.0,8.0,84,0.00,,,0.00,meteohub,2013-10-18 08:42:00,
2013-10-18 03:47:00,40.6,36.5,29.79,West,270,11.0,11.0,85,0.00,,,0.00,meteohub,2013-10-18 08:47:00,
2013-10-18 03:52:00,40.5,36.3,29.79,SW,225,8.0,11.0,85,0.00,,,0.00,meteohub,2013-10-18 08:52:00,
2013-10-18 03:57:00,40.3,36.5,29.78,West,270,7.0,11.0,86,0.00,,,0.00,meteohub,2013-10-18 08:57:00,
2013-10-18 04:02:00,40.3,36.5,29.79,NW,315,8.0,11.0,86,0.00,,,0.00,meteohub,2013-10-18 09:02:00,
2013-10-18 04:07:00,40.3,36.5,29.79,NW,315,8.0,8.0,86,0.00,,,0.00,meteohub,2013-10-18 09:07:00,
2013-10-18 04:12:00,39.6,36.0,29.79,West,270,7.0,8.0,87,0.00,,,0.00,meteohub,2013-10-18 09:12:00,
2013-10-18 04:17:00,39.6,36.3,29.79,West,270,9.0,9.0,88,0.00,,,0.00,meteohub,2013-10-18 09:17:00,
2013-10-18 04:22:00,39.4,36.1,29.79,SW,225,8.0,9.0,88,0.00,,,0.00,meteohub,2013-10-18 09:22:00,
2013-10-18 04:27:00,39.6,36.5,29.79,West,270,7.0,9.0,89,0.00,,,0.00,meteohub,2013-10-18 09:27:00,
2013-10-18 04:32:00,39.6,36.5,29.79,West,270,6.0,9.0,89,0.00,,,0.00,meteohub,2013-10-18 09:32:00,
2013-10-18 04:37:00,39.7,36.7,29.79,West,270,6.0,8.0,89,0.00,,,0.00,meteohub,2013-10-18 09:37:00,
2013-10-18 04:42:00,39.6,36.5,29.79,West,270,7.0,8.0,89,0.00,,,0.00,meteohub,2013-10-18 09:42:00,
2013-10-18 04:47:00,39.6,36.9,29.79,West,270,9.0,9.0,90,0.00,,,0.00,meteohub,2013-10-18 09:47:00,
2013-10-18 04:52:00,39.6,36.9,29.80,West,270,6.0,9.0,90,0.00,,,0.00,meteohub,2013-10-18 09:52:00,
2013-10-18 04:57:00,39.2,36.9,29.80,WSW,248,7.0,9.0,91,0.00,,,0.00,meteohub,2013-10-18 09:57:00,
2013-10-18 05:02:00,39.2,36.9,29.81,West,270,6.0,9.0,91,0.00,,,0.00,meteohub,2013-10-18 10:02:00,
2013-10-18 05:07:00,39.2,36.9,29.80,West,270,6.0,9.0,91,0.00,,,0.00,meteohub,2013-10-18 10:07:00,
2013-10-18 05:12:00,39.2,37.4,29.81,West,270,7.0,9.0,93,0.00,,,0.00,meteohub,2013-10-18 10:12:00,
2013-10-18 05:17:00,39.4,37.8,29.80,West,270,9.0,9.0,94,0.00,,,0.00,meteohub,2013-10-18 10:17:00,
2013-10-18 05:22:00,39.7,38.1,29.81,West,270,10.0,10.0,94,0.00,,,0.00,meteohub,2013-10-18 10:22:00,
2013-10-18 05:27:00,39.7,38.1,29.81,West,270,9.0,10.0,94,0.00,,,0.00,meteohub,2013-10-18 10:27:00,
2013-10-18 05:32:00,40.3,39.0,29.80,West,270,9.0,10.0,95,0.00,,,0.00,meteohub,2013-10-18 10:32:00,
2013-10-18 05:37:00,40.6,39.4,29.80,West,270,7.0,10.0,95,0.00,,,0.00,meteohub,2013-10-18 10:37:00,
2013-10-18 05:42:00,41.0,39.7,29.81,West,270,7.0,10.0,95,0.00,,,0.00,meteohub,2013-10-18 10:42:00,
2013-10-18 05:47:00,41.2,39.9,29.81,NW,315,9.0,10.0,95,0.00,,,0.00,meteohub,2013-10-18 10:47:00,
2013-10-18 05:52:00,41.4,40.1,29.81,West,270,8.0,10.0,95,0.00,,,0.00,meteohub,2013-10-18 10:52:00,
2013-10-18 05:57:00,41.5,40.5,29.81,WSW,248,7.0,9.0,96,0.00,,,0.00,meteohub,2013-10-18 10:57:00,
2013-10-18 06:02:00,41.7,40.6,29.81,West,270,6.0,9.0,96,0.00,,,0.00,meteohub,2013-10-18 11:02:00,
2013-10-18 06:07:00,41.7,40.5,29.81,SW,225,6.0,8.0,95,0.00,,,0.00,meteohub,2013-10-18 11:07:00,
2013-10-18 06:12:00,41.5,40.5,29.81,WSW,248,7.0,8.0,96,0.00,,,0.00,meteohub,2013-10-18 11:12:00,
2013-10-18 06:17:00,41.5,40.5,29.81,West,270,6.0,7.0,96,0.00,,,0.00,meteohub,2013-10-18 11:17:00,
2013-10-18 06:22:00,41.5,40.5,29.81,West,270,6.0,7.0,96,0.00,,,0.00,meteohub,2013-10-18 11:22:00,
2013-10-18 06:27:00,41.7,41.2,29.82,SW,225,5.0,8.0,98,0.00,,,0.00,meteohub,2013-10-18 11:27:00,
2013-10-18 06:32:00,41.7,41.2,29.82,West,270,6.0,8.0,98,0.00,,,0.00,meteohub,2013-10-18 11:32:00,
2013-10-18 06:37:00,41.9,41.4,29.82,West,270,5.0,8.0,98,0.00,,,0.00,meteohub,2013-10-18 11:37:00,
2013-10-18 06:42:00,41.9,41.7,29.82,West,270,5.0,7.0,99,0.00,,,0.00,meteohub,2013-10-18 11:42:00,
2013-10-18 06:47:00,42.3,42.1,29.82,West,270,6.0,6.0,99,0.00,,,0.00,meteohub,2013-10-18 11:47:00,
2013-10-18 06:52:00,42.3,42.1,29.82,West,270,4.0,7.0,99,0.00,,,0.00,meteohub,2013-10-18 11:52:00,
2013-10-18 06:57:00,42.6,42.4,29.82,West,270,6.0,7.0,99,0.00,,,0.00,meteohub,2013-10-18 11:57:00,
2013-10-18 07:02:00,42.6,42.4,29.83,West,270,5.0,8.0,99,0.00,,,0.00,meteohub,2013-10-18 12:02:00,
2013-10-18 07:07:00,42.6,42.4,29.82,West,270,5.0,8.0,99,0.00,,,0.00,meteohub,2013-10-18 12:07:00,
2013-10-18 07:12:00,43.0,42.8,29.83,SW,225,7.0,8.0,99,0.00,,,0.00,meteohub,2013-10-18 12:12:00,
2013-10-18 07:17:00,43.2,43.0,29.83,WSW,248,6.0,8.0,99,0.00,,,0.00,meteohub,2013-10-18 12:17:00,
2013-10-18 07:22:00,43.3,42.8,29.83,SW,225,8.0,9.0,98,0.00,,,0.00,meteohub,2013-10-18 12:22:00,
2013-10-18 07:27:00,43.5,42.8,29.83,SW,225,6.0,9.0,97,0.00,,,0.00,meteohub,2013-10-18 12:27:00,
2013-10-18 07:32:00,43.7,42.6,29.83,West,270,8.0,9.0,96,0.00,,,0.00,meteohub,2013-10-18 12:32:00,
2013-10-18 07:37:00,43.7,42.4,29.83,West,270,10.0,10.0,95,0.00,,,0.00,meteohub,2013-10-18 12:37:00,
2013-10-18 07:42:00,43.5,42.3,29.83,SW,225,8.0,11.0,95,0.00,,,0.00,meteohub,2013-10-18 12:42:00,
2013-10-18 07:47:00,43.5,42.3,29.83,West,270,7.0,11.0,95,0.00,,,0.00,meteohub,2013-10-18 12:47:00,
2013-10-18 07:52:00,43.5,42.3,29.83,NW,315,12.0,12.0,95,0.00,,,0.00,meteohub,2013-10-18 12:52:00,
2013-10-18 07:57:00,43.5,42.3,29.84,West,270,11.0,13.0,95,0.00,,,0.00,meteohub,2013-10-18 12:57:00,
2013-10-18 08:02:00,43.5,42.3,29.84,SW,225,9.0,13.0,95,0.00,,,0.00,meteohub,2013-10-18 13:02:00,
2013-10-18 08:07:00,43.3,42.1,29.84,West,270,12.0,13.0,95,0.00,,,0.00,meteohub,2013-10-18 13:07:00,
2013-10-18 08:12:00,43.3,42.1,29.84,West,270,9.0,15.0,95,0.00,,,0.00,meteohub,2013-10-18 13:12:00,
2013-10-18 08:17:00,43.3,42.1,29.84,NW,315,8.0,15.0,95,0.00,,,0.00,meteohub,2013-10-18 13:17:00,
2013-10-18 08:22:00,43.3,42.1,29.84,NW,315,8.0,15.0,95,0.00,,,0.00,meteohub,2013-10-18 13:22:00,
2013-10-18 08:27:00,43.3,42.1,29.85,West,270,8.0,13.0,95,0.00,,,0.00,meteohub,2013-10-18 13:27:00,
2013-10-18 08:32:00,43.3,42.3,29.85,West,270,8.0,12.0,96,0.00,,,0.00,meteohub,2013-10-18 13:32:00,
2013-10-18 08:37:00,43.3,42.1,29.85,SW,225,10.0,12.0,95,0.00,,,0.00,meteohub,2013-10-18 13:37:00,
2013-10-18 08:42:00,43.3,41.7,29.85,WSW,248,13.0,13.0,94,0.00,,,0.00,meteohub,2013-10-18 13:42:00,
2013-10-18 08:47:00,43.3,41.7,29.85,WSW,248,11.0,13.0,94,0.00,,,0.00,meteohub,2013-10-18 13:47:00,
2013-10-18 08:52:00,43.5,41.7,29.85,NW,315,11.0,13.0,93,0.00,,,0.00,meteohub,2013-10-18 13:52:00,
2013-10-18 08:57:00,43.5,41.0,29.85,West,270,15.0,15.0,91,0.00,,,0.00,meteohub,2013-10-18 13:57:00,
2013-10-18 09:02:00,43.5,41.0,29.86,WSW,248,10.0,17.0,91,0.00,,,0.00,meteohub,2013-10-18 14:02:00,
2013-10-18 09:07:00,43.5,41.0,29.86,WSW,248,10.0,17.0,91,0.00,,,0.00,meteohub,2013-10-18 14:07:00,
2013-10-18 09:12:00,43.9,40.8,29.86,SW,225,11.0,17.0,89,0.00,,,0.00,meteohub,2013-10-18 14:12:00,
2013-10-18 09:17:00,44.1,41.0,29.86,SW,225,15.0,19.0,89,0.00,,,0.00,meteohub,2013-10-18 14:17:00,
2013-10-18 09:22:00,44.1,41.0,29.87,SW,225,10.0,19.0,89,0.00,,,0.00,meteohub,2013-10-18 14:22:00,
2013-10-18 09:27:00,44.1,40.5,29.87,SW,225,16.0,19.0,87,0.00,,,0.00,meteohub,2013-10-18 14:27:00,
2013-10-18 09:32:00,44.4,40.5,29.87,West,270,18.0,18.0,86,0.00,,,0.00,meteohub,2013-10-18 14:32:00,
2013-10-18 09:37:00,44.2,40.1,29.88,NW,315,15.0,18.0,85,0.00,,,0.00,meteohub,2013-10-18 14:37:00,
2013-10-18 09:42:00,44.2,39.7,29.87,West,270,9.0,18.0,84,0.00,,,0.00,meteohub,2013-10-18 14:42:00,
2013-10-18 09:47:00,44.1,39.6,29.87,NW,315,14.0,18.0,84,0.00,,,0.00,meteohub,2013-10-18 14:47:00,
2013-10-18 09:52:00,43.9,39.7,29.88,West,270,15.0,17.0,85,0.00,,,0.00,meteohub,2013-10-18 14:52:00,
2013-10-18 09:57:00,43.9,39.7,29.87,West,270,14.0,17.0,85,0.00,,,0.00,meteohub,2013-10-18 14:57:00,
2013-10-18 10:02:00,43.9,39.7,29.88,NW,315,13.0,17.0,85,0.00,,,0.00,meteohub,2013-10-18 15:02:00,
2013-10-18 10:07:00,43.9,39.7,29.87,NW,315,13.0,17.0,85,0.00,,,0.00,meteohub,2013-10-18 15:07:00,
2013-10-18 10:12:00,44.1,38.8,29.88,West,270,15.0,17.0,82,0.00,,,0.00,meteohub,2013-10-18 15:12:00,
2013-10-18 10:17:00,44.1,38.8,29.87,NNW,338,17.0,18.0,82,0.00,,,0.00,meteohub,2013-10-18 15:17:00,
2013-10-18 10:22:00,44.1,39.2,29.88,West,270,9.0,18.0,83,0.00,,,0.00,meteohub,2013-10-18 15:22:00,
2013-10-18 10:27:00,44.2,39.7,29.87,WNW,293,12.0,18.0,84,0.00,,,0.00,meteohub,2013-10-18 15:27:00,
2013-10-18 10:32:00,44.1,39.2,29.87,NW,315,15.0,18.0,83,0.00,,,0.00,meteohub,2013-10-18 15:32:00,
2013-10-18 10:37:00,44.2,39.0,29.87,WNW,293,14.0,17.0,82,0.00,,,0.00,meteohub,2013-10-18 15:37:00,
2013-10-18 10:42:00,44.8,39.0,29.88,SW,225,11.0,17.0,80,0.00,,,0.00,meteohub,2013-10-18 15:42:00,
2013-10-18 10:47:00,45.1,39.0,29.88,NW,315,14.0,15.0,79,0.00,,,0.00,meteohub,2013-10-18 15:47:00,
2013-10-18 10:52:00,45.1,39.0,29.87,NW,315,13.0,15.0,79,0.00,,,0.00,meteohub,2013-10-18 15:52:00,
2013-10-18 10:57:00,45.1,39.0,29.88,West,270,10.0,15.0,79,0.00,,,0.00,meteohub,2013-10-18 15:57:00,
2013-10-18 11:02:00,45.3,39.2,29.88,West,270,11.0,15.0,79,0.00,,,0.00,meteohub,2013-10-18 16:02:00,
2013-10-18 11:07:00,45.3,39.2,29.88,West,270,11.0,15.0,79,0.00,,,0.00,meteohub,2013-10-18 16:07:00,
2013-10-18 11:12:00,45.1,39.7,29.88,SW,225,10.0,15.0,81,0.00,,,0.00,meteohub,2013-10-18 16:12:00,
2013-10-18 11:17:00,44.6,39.4,29.88,WSW,248,15.0,15.0,82,0.00,,,0.00,meteohub,2013-10-18 16:17:00,
2013-10-18 11:22:00,44.4,39.6,29.88,North,0,15.0,15.0,83,0.00,,,0.00,meteohub,2013-10-18 16:22:00,
2013-10-18 11:27:00,44.4,39.6,29.88,West,270,11.0,18.0,83,0.00,,,0.00,meteohub,2013-10-18 16:27:00,
2013-10-18 11:32:00,44.6,39.7,29.88,NW,315,11.0,18.0,83,0.00,,,0.00,meteohub,2013-10-18 16:32:00,
2013-10-18 11:37:00,45.0,39.7,29.88,West,270,11.0,18.0,82,0.00,,,0.00,meteohub,2013-10-18 16:37:00,
2013-10-18 11:42:00,44.8,39.6,29.88,WNW,293,15.0,17.0,82,0.00,,,0.00,meteohub,2013-10-18 16:42:00,
2013-10-18 11:47:00,44.6,39.4,29.88,NW,315,11.0,15.0,82,0.00,,,0.00,meteohub,2013-10-18 16:47:00,
2013-10-18 11:52:00,44.4,39.2,29.88,West,270,16.0,16.0,82,0.00,,,0.00,meteohub,2013-10-18 16:52:00,
2013-10-18 11:57:00,44.8,39.4,29.88,West,270,14.0,19.0,81,0.00,,,0.00,meteohub,2013-10-18 16:57:00,
2013-10-18 12:02:00,44.8,39.4,29.88,NW,315,11.0,19.0,81,0.00,,,0.00,meteohub,2013-10-18 17:02:00,
2013-10-18 12:07:00,44.8,39.0,29.89,SW,225,13.0,19.0,80,0.00,,,0.00,meteohub,2013-10-18 17:07:00,
2013-10-18 12:12:00,44.6,38.8,29.89,NW,315,13.0,17.0,80,0.00,,,0.00,meteohub,2013-10-18 17:12:00,
2013-10-18 12:17:00,44.6,38.8,29.89,West,270,9.0,17.0,80,0.00,,,0.00,meteohub,2013-10-18 17:17:00,
2013-10-18 12:22:00,44.8,38.3,29.90,SW,225,15.0,17.0,78,0.00,,,0.00,meteohub,2013-10-18 17:22:00,
2013-10-18 12:27:00,44.6,38.5,29.90,NW,315,13.0,17.0,79,0.00,,,0.00,meteohub,2013-10-18 17:27:00,
2013-10-18 12:32:00,44.8,38.3,29.89,NW,315,12.0,17.0,78,0.00,,,0.00,meteohub,2013-10-18 17:32:00,
2013-10-18 12:37:00,44.8,38.3,29.89,NW,315,15.0,20.0,78,0.00,,,0.00,meteohub,2013-10-18 17:37:00,
2013-10-18 12:42:00,44.8,37.9,29.90,NW,315,11.0,20.0,77,0.00,,,0.00,meteohub,2013-10-18 17:42:00,
2013-10-18 12:47:00,44.8,37.9,29.89,NNE,23,6.0,20.0,77,0.00,,,0.00,meteohub,2013-10-18 17:47:00,
2013-10-18 12:52:00,44.8,37.9,29.90,NW,315,8.0,17.0,77,0.00,,,0.00,meteohub,2013-10-18 17:52:00,
2013-10-18 12:58:00,45.0,38.1,29.89,West,270,13.0,17.0,77,0.00,,,0.00,meteohub,2013-10-18 17:58:00,
2013-10-18 13:03:00,44.6,37.8,29.89,West,270,11.0,13.0,77,0.00,,,0.00,meteohub,2013-10-18 18:03:00,
2013-10-18 13:08:00,44.6,37.8,29.90,NW,315,8.0,15.0,77,0.00,,,0.00,meteohub,2013-10-18 18:08:00,
2013-10-18 13:13:00,44.4,37.6,29.90,West,270,8.0,15.0,77,0.00,,,0.00,meteohub,2013-10-18 18:13:00,
2013-10-18 13:18:00,44.4,37.6,29.89,SE,135,15.0,15.0,77,0.00,,,0.00,meteohub,2013-10-18 18:18:00,
2013-10-18 13:23:00,44.4,37.4,29.89,NW,315,12.0,15.0,76,0.00,,,0.00,meteohub,2013-10-18 18:23:00,
2013-10-18 13:28:00,44.6,37.2,29.89,NE,45,11.0,18.0,75,0.00,,,0.00,meteohub,2013-10-18 18:28:00,
2013-10-18 13:33:00,44.6,36.1,29.89,NNW,338,12.0,20.0,72,0.00,,,0.00,meteohub,2013-10-18 18:33:00,
2013-10-18 13:38:00,44.8,37.0,29.89,WNW,293,9.0,20.0,74,0.00,,,0.00,meteohub,2013-10-18 18:38:00,
2013-10-18 13:43:00,45.0,36.9,29.90,West,270,15.0,20.0,73,0.00,,,0.00,meteohub,2013-10-18 18:43:00,
2013-10-18 13:48:00,44.8,36.7,29.90,WNW,293,19.0,19.0,73,0.00,,,0.00,meteohub,2013-10-18 18:48:00,
2013-10-18 13:53:00,44.8,37.0,29.89,North,0,8.0,16.0,74,0.00,,,0.00,meteohub,2013-10-18 18:53:00,
2013-10-18 13:59:00,44.8,37.0,29.90,NE,45,8.0,19.0,74,0.00,,,0.00,meteohub,2013-10-18 18:59:00,
2013-10-18 14:04:00,44.8,37.0,29.89,NW,315,11.0,19.0,74,0.00,,,0.00,meteohub,2013-10-18 19:04:00,
2013-10-18 14:09:00,45.1,37.0,29.89,WSW,248,9.0,14.0,73,0.00,,,0.00,meteohub,2013-10-18 19:09:00,
2013-10-18 14:14:00,45.3,36.5,29.89,East,90,11.0,15.0,71,0.00,,,0.00,meteohub,2013-10-18 19:14:00,
2013-10-18 14:19:00,45.3,36.9,29.89,NE,45,8.0,16.0,72,0.00,,,0.00,meteohub,2013-10-18 19:19:00,
2013-10-18 14:24:00,45.1,36.7,29.89,West,270,7.0,16.0,72,0.00,,,0.00,meteohub,2013-10-18 19:24:00,
2013-10-18 14:29:00,45.1,37.0,29.89,West,270,8.0,16.0,73,0.00,,,0.00,meteohub,2013-10-18 19:29:00,
2013-10-18 14:34:00,45.1,36.7,29.89,South,180,10.0,13.0,72,0.00,,,0.00,meteohub,2013-10-18 19:34:00,
2013-10-18 14:39:00,45.0,36.5,29.89,West,270,11.0,13.0,72,0.00,,,0.00,meteohub,2013-10-18 19:39:00,
2013-10-18 14:44:00,45.0,36.5,29.89,West,270,15.0,15.0,72,0.00,,,0.00,meteohub,2013-10-18 19:44:00,
2013-10-18 14:49:00,45.0,36.1,29.89,West,270,15.0,15.0,71,0.00,,,0.00,meteohub,2013-10-18 19:49:00,
2013-10-18 14:54:00,44.8,36.3,29.89,SW,225,8.0,17.0,72,0.00,,,0.00,meteohub,2013-10-18 19:54:00,
2013-10-18 14:59:00,44.8,36.3,29.89,West,270,10.0,17.0,72,0.00,,,0.00,meteohub,2013-10-18 19:59:00,
2013-10-18 15:04:00,44.8,36.3,29.89,West,270,10.0,15.0,72,0.00,,,0.00,meteohub,2013-10-18 20:04:00,
2013-10-18 15:10:00,44.6,36.1,29.89,West,270,8.0,15.0,72,0.00,,,0.00,meteohub,2013-10-18 20:10:00,
2013-10-18 15:15:00,44.8,35.6,29.88,North,0,12.0,12.0,70,0.00,,,0.00,meteohub,2013-10-18 20:15:00,
2013-10-18 15:20:00,44.8,35.6,29.89,NNE,23,10.0,11.0,70,0.00,,,0.00,meteohub,2013-10-18 20:20:00,
2013-10-18 15:25:00,44.8,35.6,29.90,North,0,14.0,14.0,70,0.00,,,0.00,meteohub,2013-10-18 20:25:00,
2013-10-18 15:30:00,45.0,35.8,29.90,NW,315,5.0,14.0,70,0.00,,,0.00,meteohub,2013-10-18 20:30:00,
2013-10-18 15:35:00,45.3,36.5,29.90,North,0,8.0,14.0,71,0.00,,,0.00,meteohub,2013-10-18 20:35:00,
2013-10-18 15:40:00,45.9,35.1,29.89,North,0,11.0,15.0,66,0.00,,,0.00,meteohub,2013-10-18 20:40:00,
2013-10-18 15:45:00,45.7,35.4,29.90,South,180,11.0,15.0,67,0.00,,,0.00,meteohub,2013-10-18 20:45:00,
2013-10-18 15:50:00,45.3,35.1,29.90,West,270,5.0,15.0,67,0.00,,,0.00,meteohub,2013-10-18 20:50:00,
2013-10-18 15:55:00,45.3,34.7,29.90,NW,315,13.0,15.0,66,0.00,,,0.00,meteohub,2013-10-18 20:55:00,
2013-10-18 16:00:00,45.5,34.3,29.90,West,270,10.0,16.0,65,0.00,,,0.00,meteohub,2013-10-18 21:00:00,
2013-10-18 16:05:00,45.5,34.3,29.90,West,270,10.0,16.0,65,0.00,,,0.00,meteohub,2013-10-18 21:05:00,
2013-10-18 16:10:00,45.7,35.1,29.90,NE,45,6.0,16.0,66,0.00,,,0.00,meteohub,2013-10-18 21:10:00,
2013-10-18 16:15:00,45.7,35.4,29.90,South,180,4.0,11.0,67,0.00,,,0.00,meteohub,2013-10-18 21:15:00,
2013-10-18 16:21:00,45.5,34.9,29.90,North,0,6.0,11.0,66,0.00,,,0.00,meteohub,2013-10-18 21:21:00,
2013-10-18 16:26:00,45.5,34.3,29.90,NE,45,15.0,15.0,65,0.00,,,0.00,meteohub,2013-10-18 21:26:00,
2013-10-18 16:31:00,45.3,35.1,29.90,NW,315,4.0,15.0,67,0.00,,,0.00,meteohub,2013-10-18 21:31:00,
2013-10-18 16:36:00,45.3,35.1,29.90,West,270,7.0,15.0,67,0.00,,,0.00,meteohub,2013-10-18 21:36:00,
2013-10-18 16:41:00,45.3,35.1,29.90,West,270,5.0,15.0,67,0.00,,,0.00,meteohub,2013-10-18 21:41:00,
2013-10-18 16:46:00,45.3,35.1,29.90,NW,315,5.0,9.0,67,0.00,,,0.00,meteohub,2013-10-18 21:46:00,
2013-10-18 16:51:00,45.3,35.1,29.90,West,270,7.0,9.0,67,0.00,,,0.00,meteohub,2013-10-18 21:51:00,
2013-10-18 16:56:00,45.3,35.1,29.91,SW,225,3.0,8.0,67,0.00,,,0.00,meteohub,2013-10-18 21:56:00,
2013-10-18 17:01:00,45.3,35.1,29.91,NW,315,9.0,9.0,67,0.00,,,0.00,meteohub,2013-10-18 22:01:00,
2013-10-18 17:06:00,45.3,35.1,29.90,NW,315,9.0,9.0,67,0.00,,,0.00,meteohub,2013-10-18 22:06:00,
2013-10-18 17:11:00,45.3,35.1,29.90,SW,225,4.0,9.0,67,0.00,,,0.00,meteohub,2013-10-18 22:11:00,
2013-10-18 17:16:00,45.1,35.2,29.91,West,270,8.0,9.0,68,0.00,,,0.00,meteohub,2013-10-18 22:16:00,
2013-10-18 17:21:00,45.1,34.5,29.91,West,270,6.0,9.0,66,0.00,,,0.00,meteohub,2013-10-18 22:21:00,
2013-10-18 17:27:00,45.1,34.5,29.91,WNW,293,7.0,11.0,66,0.00,,,0.00,meteohub,2013-10-18 22:27:00,
2013-10-18 17:32:00,45.1,34.9,29.91,NW,315,6.0,11.0,67,0.00,,,0.00,meteohub,2013-10-18 22:32:00,
2013-10-18 17:37:00,45.0,35.1,29.91,West,270,5.0,11.0,68,0.00,,,0.00,meteohub,2013-10-18 22:37:00,
2013-10-18 17:42:00,44.8,34.9,29.91,West,270,4.0,8.0,68,0.00,,,0.00,meteohub,2013-10-18 22:42:00,
2013-10-18 17:47:00,45.1,35.2,29.91,West,270,4.0,8.0,68,0.00,,,0.00,meteohub,2013-10-18 22:47:00,
2013-10-18 17:52:00,44.6,34.7,29.91,West,270,5.0,7.0,68,0.00,,,0.00,meteohub,2013-10-18 22:52:00,
2013-10-18 17:57:00,44.4,34.5,29.91,West,270,6.0,7.0,68,0.00,,,0.00,meteohub,2013-10-18 22:57:00,
2013-10-18 18:02:00,44.4,34.5,29.91,West,270,3.0,7.0,68,0.00,,,0.00,meteohub,2013-10-18 23:02:00,
2013-10-18 18:07:00,44.4,34.5,29.91,West,270,3.0,6.0,68,0.00,,,0.00,meteohub,2013-10-18 23:07:00,
2013-10-18 18:12:00,43.9,34.3,29.91,West,270,2.0,6.0,69,0.00,,,0.00,meteohub,2013-10-18 23:12:00,
2013-10-18 18:17:00,43.7,34.5,29.91,West,270,3.0,4.0,70,0.00,,,0.00,meteohub,2013-10-18 23:17:00,
2013-10-18 18:22:00,43.7,34.5,29.91,West,270,3.0,4.0,70,0.00,,,0.00,meteohub,2013-10-18 23:22:00,
2013-10-18 18:27:00,43.5,34.3,29.91,West,270,2.0,3.0,70,0.00,,,0.00,meteohub,2013-10-18 23:27:00,
2013-10-18 18:32:00,43.3,34.5,29.91,West,270,2.0,3.0,71,0.00,,,0.00,meteohub,2013-10-18 23:32:00,
2013-10-18 18:37:00,43.3,34.9,29.91,SW,225,2.0,3.0,72,0.00,,,0.00,meteohub,2013-10-18 23:37:00,
2013-10-18 18:42:00,42.8,34.3,29.91,SW,225,2.0,3.0,72,0.00,,,0.00,meteohub,2013-10-18 23:42:00,
2013-10-18 18:47:00,43.0,34.5,29.92,West,270,2.0,2.0,72,0.00,,,0.00,meteohub,2013-10-18 23:47:00,
2013-10-18 18:52:00,42.8,34.7,29.92,SW,225,3.0,3.0,73,0.00,,,0.00,meteohub,2013-10-18 23:52:00,
2013-10-18 18:57:00,42.6,34.5,29.92,SW,225,2.0,3.0,73,0.00,,,0.00,meteohub,2013-10-18 23:57:00,
2013-10-18 19:02:00,42.6,34.9,29.93,West,270,2.0,3.0,74,0.00,,,0.00,meteohub,2013-10-19 00:02:00,
2013-10-18 19:07:00,42.6,34.9,29.92,West,270,2.0,3.0,74,0.00,,,0.00,meteohub,2013-10-19 00:07:00,
2013-10-18 19:12:00,42.3,34.5,29.92,West,270,2.0,3.0,74,0.00,,,0.00,meteohub,2013-10-19 00:12:00,
2013-10-18 19:17:00,42.4,34.7,29.93,West,270,2.0,3.0,74,0.00,,,0.00,meteohub,2013-10-19 00:17:00,
2013-10-18 19:22:00,42.3,34.5,29.92,West,270,2.0,3.0,74,0.00,,,0.00,meteohub,2013-10-19 00:22:00,
2013-10-18 19:27:00,42.3,34.9,29.92,West,270,3.0,3.0,75,0.00,,,0.00,meteohub,2013-10-19 00:27:00,
2013-10-18 19:32:00,42.3,34.9,29.92,West,270,2.0,3.0,75,0.00,,,0.00,meteohub,2013-10-19 00:32:00,
2013-10-18 19:37:00,42.3,34.9,29.92,SW,225,3.0,3.0,75,0.00,,,0.00,meteohub,2013-10-19 00:37:00,
2013-10-18 19:42:00,42.1,35.1,29.92,SW,225,3.0,3.0,76,0.00,,,0.00,meteohub,2013-10-19 00:42:00,
2013-10-18 19:47:00,41.9,34.9,29.92,West,270,2.0,3.0,76,0.00,,,0.00,meteohub,2013-10-19 00:47:00,
2013-10-18 19:52:00,41.7,34.7,29.92,West,270,2.0,3.0,76,0.00,,,0.00,meteohub,2013-10-19 00:52:00,
2013-10-18 19:57:00,41.7,34.7,29.92,West,270,3.0,3.0,76,0.00,,,0.00,meteohub,2013-10-19 00:57:00,
2013-10-18 20:02:00,41.7,34.7,29.92,West,270,3.0,3.0,76,0.00,,,0.00,meteohub,2013-10-19 01:02:00,
2013-10-18 20:07:00,41.7,34.7,29.92,West,270,3.0,3.0,76,0.00,,,0.00,meteohub,2013-10-19 01:07:00,
2013-10-18 20:12:00,41.5,34.9,29.91,West,270,2.0,3.0,77,0.00,,,0.00,meteohub,2013-10-19 01:12:00,
2013-10-18 20:17:00,41.4,34.7,29.92,West,270,2.0,3.0,77,0.00,,,0.00,meteohub,2013-10-19 01:17:00,
2013-10-18 20:22:00,41.4,34.7,29.92,West,270,2.0,3.0,77,0.00,,,0.00,meteohub,2013-10-19 01:22:00,
2013-10-18 20:27:00,41.4,34.7,29.92,West,270,3.0,3.0,77,0.00,,,0.00,meteohub,2013-10-19 01:27:00,
2013-10-18 20:32:00,41.5,34.9,29.92,West,270,2.0,3.0,77,0.00,,,0.00,meteohub,2013-10-19 01:32:00,
2013-10-18 20:37:00,41.4,34.3,29.92,West,270,2.0,3.0,76,0.00,,,0.00,meteohub,2013-10-19 01:37:00,
2013-10-18 20:42:00,41.4,34.3,29.92,West,270,2.0,3.0,76,0.00,,,0.00,meteohub,2013-10-19 01:42:00,
2013-10-18 20:47:00,41.5,34.5,29.91,West,270,3.0,3.0,76,0.00,,,0.00,meteohub,2013-10-19 01:47:00,
2013-10-18 20:52:00,41.4,34.3,29.91,West,270,2.0,3.0,76,0.00,,,0.00,meteohub,2013-10-19 01:52:00,
2013-10-18 20:57:00,41.4,34.3,29.92,West,270,2.0,3.0,76,0.00,,,0.00,meteohub,2013-10-19 01:57:00,
2013-10-18 21:02:00,41.4,34.3,29.91,West,270,2.0,3.0,76,0.00,,,0.00,meteohub,2013-10-19 02:02:00,
2013-10-18 21:07:00,41.4,34.3,29.91,West,270,2.0,2.0,76,0.00,,,0.00,meteohub,2013-10-19 02:07:00,
2013-10-18 21:12:00,41.2,34.2,29.91,West,270,4.0,4.0,76,0.00,,,0.00,meteohub,2013-10-19 02:12:00,
2013-10-18 21:17:00,41.5,34.5,29.91,West,270,2.0,4.0,76,0.00,,,0.00,meteohub,2013-10-19 02:17:00,
2013-10-18 21:22:00,41.2,34.2,29.91,West,270,3.0,4.0,76,0.00,,,0.00,meteohub,2013-10-19 02:22:00,
2013-10-18 21:27:00,41.2,34.2,29.91,West,270,3.0,4.0,76,0.00,,,0.00,meteohub,2013-10-19 02:27:00,
2013-10-18 21:32:00,41.7,34.3,29.91,West,270,3.0,4.0,75,0.00,,,0.00,meteohub,2013-10-19 02:32:00,
2013-10-18 21:37:00,41.7,34.3,29.91,West,270,3.0,4.0,75,0.00,,,0.00,meteohub,2013-10-19 02:37:00,
2013-10-18 21:42:00,41.7,34.3,29.91,West,270,4.0,4.0,75,0.00,,,0.00,meteohub,2013-10-19 02:42:00,
2013-10-18 21:47:00,41.5,34.5,29.91,West,270,2.0,4.0,76,0.00,,,0.00,meteohub,2013-10-19 02:47:00,
2013-10-18 21:52:00,41.2,34.2,29.91,West,270,2.0,4.0,76,0.00,,,0.00,meteohub,2013-10-19 02:52:00,
2013-10-18 21:57:00,41.5,34.5,29.91,West,270,3.0,4.0,76,0.00,,,0.00,meteohub,2013-10-19 02:57:00,
2013-10-18 22:02:00,41.4,34.3,29.91,SW,225,2.0,3.0,76,0.00,,,0.00,meteohub,2013-10-19 03:02:00,
2013-10-18 22:07:00,41.4,34.3,29.91,SW,225,2.0,3.0,76,0.00,,,0.00,meteohub,2013-10-19 03:07:00,
2013-10-18 22:12:00,41.2,34.5,29.91,West,270,3.0,3.0,77,0.00,,,0.00,meteohub,2013-10-19 03:12:00,
2013-10-18 22:17:00,40.8,34.5,29.91,West,270,3.0,3.0,78,0.00,,,0.00,meteohub,2013-10-19 03:17:00,
2013-10-18 22:22:00,40.6,34.3,29.91,West,270,3.0,3.0,78,0.00,,,0.00,meteohub,2013-10-19 03:22:00,
2013-10-18 22:27:00,40.8,34.9,29.91,West,270,4.0,4.0,79,0.00,,,0.00,meteohub,2013-10-19 03:27:00,
2013-10-18 22:32:00,40.6,34.7,29.91,West,270,2.0,4.0,79,0.00,,,0.00,meteohub,2013-10-19 03:32:00,
2013-10-18 22:37:00,40.6,34.7,29.91,West,270,3.0,4.0,79,0.00,,,0.00,meteohub,2013-10-19 03:37:00,
2013-10-18 22:42:00,40.5,34.5,29.91,West,270,3.0,4.0,79,0.00,,,0.00,meteohub,2013-10-19 03:42:00,
2013-10-18 22:47:00,40.5,34.5,29.91,West,270,3.0,4.0,79,0.00,,,0.00,meteohub,2013-10-19 03:47:00,
2013-10-18 22:52:00,40.5,34.5,29.90,West,270,3.0,4.0,79,0.00,,,0.00,meteohub,2013-10-19 03:52:00,
2013-10-18 22:57:00,40.5,34.5,29.91,SW,225,4.0,4.0,79,0.00,,,0.00,meteohub,2013-10-19 03:57:00,
2013-10-18 23:01:00,40.5,34.5,29.91,SW,225,4.0,5.0,79,0.00,,,0.00,meteohub,2013-10-19 04:01:00,
2013-10-18 23:02:00,40.5,34.5,29.90,SW,225,4.0,5.0,79,0.00,,,0.00,meteohub,2013-10-19 04:02:00,
2013-10-18 23:05:00,40.5,34.5,29.90,SW,225,4.0,5.0,79,0.00,,,0.00,meteohub,2013-10-19 04:05:00,
2013-10-18 23:10:00,39.7,34.3,29.91,West,270,4.0,5.0,81,0.00,,,0.00,meteohub,2013-10-19 04:10:00,
2013-10-18 23:15:00,39.7,34.3,29.91,NW,315,5.0,5.0,81,0.00,,,0.00,meteohub,2013-10-19 04:15:00,
2013-10-18 23:20:00,39.7,34.3,29.90,SW,225,4.0,5.0,81,0.00,,,0.00,meteohub,2013-10-19 04:20:00,
2013-10-18 23:25:00,39.7,34.3,29.90,West,270,4.0,6.0,81,0.00,,,0.00,meteohub,2013-10-19 04:25:00,
2013-10-18 23:30:00,39.6,34.2,29.91,SW,225,4.0,6.0,81,0.00,,,0.00,meteohub,2013-10-19 04:30:00,
2013-10-18 23:35:00,39.6,34.0,29.90,West,270,5.0,6.0,80,0.00,,,0.00,meteohub,2013-10-19 04:35:00,
2013-10-18 23:40:00,39.4,33.8,29.90,NNW,338,5.0,5.0,80,0.00,,,0.00,meteohub,2013-10-19 04:40:00,
2013-10-18 23:46:00,39.7,34.2,29.90,West,270,4.0,5.0,80,0.00,,,0.00,meteohub,2013-10-19 04:46:00,
2013-10-18 23:51:00,39.6,34.0,29.89,West,270,4.0,5.0,80,0.00,,,0.00,meteohub,2013-10-19 04:51:00,
2013-10-18 23:56:00,39.7,34.2,29.89,SW,225,5.0,5.0,80,0.00,,,0.00,meteohub,2013-10-19 04:56:00,